sensor_id;sensor_type;location;lat;lon;timestamp;P1;durP1;ratioP1;P2;durP2;ratioP2
36497;SDS011;22513;51.222;6.480;2022-10-16T00:00:31;16.08;;;9.55;;
36497;SDS011;22513;51.222;6.480;2022-10-16T00:02:58;13.90;;;8.88;;
36497;SDS011;22513;51.222;6.480;2022-10-16T00:05:23;19.00;;;9.32;;
36497;SDS011;22513;51.222;6.480;2022-10-16T00:07:49;12.75;;;8.68;;
36497;SDS011;22513;51.222;6.480;2022-10-16T00:10:15;13.45;;;8.13;;
36497;SDS011;22513;51.222;6.480;2022-10-16T00:12:40;14.10;;;8.25;;
36497;SDS011;22513;51.222;6.480;2022-10-16T00:15:06;16.13;;;7.90;;
36497;SDS011;22513;51.222;6.480;2022-10-16T00:17:32;15.15;;;7.72;;
36497;SDS011;22513;51.222;6.480;2022-10-16T00:19:58;13.40;;;7.25;;
36497;SDS011;22513;51.222;6.480;2022-10-16T00:22:23;11.02;;;6.88;;
36497;SDS011;22513;51.222;6.480;2022-10-16T00:24:49;12.23;;;7.20;;
36497;SDS011;22513;51.222;6.480;2022-10-16T00:27:15;9.27;;;6.93;;
36497;SDS011;22513;51.222;6.480;2022-10-16T00:29:41;10.65;;;7.55;;
36497;SDS011;22513;51.222;6.480;2022-10-16T00:32:07;15.30;;;6.43;;
36497;SDS011;22513;51.222;6.480;2022-10-16T00:34:33;11.13;;;6.18;;
36497;SDS011;22513;51.222;6.480;2022-10-16T00:36:58;10.50;;;6.15;;
36497;SDS011;22513;51.222;6.480;2022-10-16T00:39:24;10.50;;;6.15;;
36497;SDS011;22513;51.222;6.480;2022-10-16T00:41:50;11.27;;;6.35;;
36497;SDS011;22513;51.222;6.480;2022-10-16T00:49:50;9.60;;;5.95;;
36497;SDS011;22513;51.222;6.480;2022-10-16T00:52:18;9.82;;;5.50;;
36497;SDS011;22513;51.222;6.480;2022-10-16T00:54:44;11.00;;;6.05;;
36497;SDS011;22513;51.222;6.480;2022-10-16T00:57:12;13.43;;;6.10;;
36497;SDS011;22513;51.222;6.480;2022-10-16T00:59:39;10.10;;;5.50;;
36497;SDS011;22513;51.222;6.480;2022-10-16T01:02:08;11.02;;;5.93;;
36497;SDS011;22513;51.222;6.480;2022-10-16T01:04:43;9.65;;;5.90;;
36497;SDS011;22513;51.222;6.480;2022-10-16T01:10:33;7.85;;;5.03;;
36497;SDS011;22513;51.222;6.480;2022-10-16T01:20:48;12.90;;;5.53;;
36497;SDS011;22513;51.222;6.480;2022-10-16T01:28:39;8.85;;;5.03;;
36497;SDS011;22513;51.222;6.480;2022-10-16T01:31:12;9.38;;;5.70;;
36497;SDS011;22513;51.222;6.480;2022-10-16T01:33:46;8.18;;;5.40;;
36497;SDS011;22513;51.222;6.480;2022-10-16T01:36:21;7.38;;;5.10;;
36497;SDS011;22513;51.222;6.480;2022-10-16T01:38:51;7.43;;;5.07;;
36497;SDS011;22513;51.222;6.480;2022-10-16T01:41:21;10.27;;;5.07;;
36497;SDS011;22513;51.222;6.480;2022-10-16T01:43:54;10.10;;;5.22;;
36497;SDS011;22513;51.222;6.480;2022-10-16T01:46:39;9.93;;;5.15;;
36497;SDS011;22513;51.222;6.480;2022-10-16T01:49:07;8.57;;;5.35;;
36497;SDS011;22513;51.222;6.480;2022-10-16T01:51:35;9.90;;;4.90;;
36497;SDS011;22513;51.222;6.480;2022-10-16T01:54:02;7.38;;;4.90;;
36497;SDS011;22513;51.222;6.480;2022-10-16T01:56:32;8.35;;;5.07;;
36497;SDS011;22513;51.222;6.480;2022-10-16T01:59:07;8.10;;;5.32;;
36497;SDS011;22513;51.222;6.480;2022-10-16T02:01:36;6.65;;;5.13;;
36497;SDS011;22513;51.222;6.480;2022-10-16T02:04:14;13.25;;;5.35;;
36497;SDS011;22513;51.222;6.480;2022-10-16T02:06:43;8.10;;;4.18;;
36497;SDS011;22513;51.222;6.480;2022-10-16T02:09:09;7.57;;;4.55;;
36497;SDS011;22513;51.222;6.480;2022-10-16T02:11:35;8.68;;;4.30;;
36497;SDS011;22513;51.222;6.480;2022-10-16T02:14:04;9.60;;;4.50;;
36497;SDS011;22513;51.222;6.480;2022-10-16T02:16:35;8.02;;;4.50;;
36497;SDS011;22513;51.222;6.480;2022-10-16T02:19:03;9.55;;;4.43;;
36497;SDS011;22513;51.222;6.480;2022-10-16T02:21:30;8.68;;;4.15;;
36497;SDS011;22513;51.222;6.480;2022-10-16T02:29:46;6.40;;;3.50;;
36497;SDS011;22513;51.222;6.480;2022-10-16T02:32:19;5.90;;;2.90;;
36497;SDS011;22513;51.222;6.480;2022-10-16T02:34:48;6.57;;;3.40;;
36497;SDS011;22513;51.222;6.480;2022-10-16T02:37:16;7.88;;;2.92;;
36497;SDS011;22513;51.222;6.480;2022-10-16T02:39:42;5.90;;;3.42;;
36497;SDS011;22513;51.222;6.480;2022-10-16T02:42:12;3.50;;;2.75;;
36497;SDS011;22513;51.222;6.480;2022-10-16T02:44:38;4.63;;;2.80;;
36497;SDS011;22513;51.222;6.480;2022-10-16T02:47:04;4.10;;;2.42;;
36497;SDS011;22513;51.222;6.480;2022-10-16T02:49:30;7.13;;;3.10;;
36497;SDS011;22513;51.222;6.480;2022-10-16T02:51:56;5.95;;;2.60;;
36497;SDS011;22513;51.222;6.480;2022-10-16T02:54:21;5.68;;;2.50;;
36497;SDS011;22513;51.222;6.480;2022-10-16T02:56:47;7.05;;;2.17;;
36497;SDS011;22513;51.222;6.480;2022-10-16T02:59:13;4.55;;;1.90;;
36497;SDS011;22513;51.222;6.480;2022-10-16T03:01:38;8.10;;;2.72;;
36497;SDS011;22513;51.222;6.480;2022-10-16T03:04:04;4.80;;;2.30;;
36497;SDS011;22513;51.222;6.480;2022-10-16T03:06:29;3.35;;;2.10;;
36497;SDS011;22513;51.222;6.480;2022-10-16T03:08:55;5.38;;;2.80;;
36497;SDS011;22513;51.222;6.480;2022-10-16T03:11:21;5.65;;;2.50;;
36497;SDS011;22513;51.222;6.480;2022-10-16T03:13:46;6.53;;;1.88;;
36497;SDS011;22513;51.222;6.480;2022-10-16T03:16:12;8.63;;;2.22;;
36497;SDS011;22513;51.222;6.480;2022-10-16T03:18:37;3.83;;;2.45;;
36497;SDS011;22513;51.222;6.480;2022-10-16T03:21:03;3.00;;;2.28;;
36497;SDS011;22513;51.222;6.480;2022-10-16T03:23:29;4.57;;;3.20;;
36497;SDS011;22513;51.222;6.480;2022-10-16T03:25:54;4.35;;;2.35;;
36497;SDS011;22513;51.222;6.480;2022-10-16T03:28:20;8.38;;;2.53;;
36497;SDS011;22513;51.222;6.480;2022-10-16T03:30:46;7.80;;;2.25;;
36497;SDS011;22513;51.222;6.480;2022-10-16T03:33:11;3.63;;;1.88;;
36497;SDS011;22513;51.222;6.480;2022-10-16T03:35:37;6.38;;;2.00;;
36497;SDS011;22513;51.222;6.480;2022-10-16T03:38:02;3.92;;;1.80;;
36497;SDS011;22513;51.222;6.480;2022-10-16T03:40:28;3.10;;;1.60;;
36497;SDS011;22513;51.222;6.480;2022-10-16T03:42:54;3.55;;;1.60;;
36497;SDS011;22513;51.222;6.480;2022-10-16T03:45:22;5.47;;;2.17;;
36497;SDS011;22513;51.222;6.480;2022-10-16T03:47:48;5.00;;;2.00;;
36497;SDS011;22513;51.222;6.480;2022-10-16T03:50:14;3.47;;;1.98;;
36497;SDS011;22513;51.222;6.480;2022-10-16T03:52:39;5.18;;;2.00;;
36497;SDS011;22513;51.222;6.480;2022-10-16T03:55:05;4.32;;;2.00;;
36497;SDS011;22513;51.222;6.480;2022-10-16T03:57:31;10.05;;;2.20;;
36497;SDS011;22513;51.222;6.480;2022-10-16T03:59:57;3.22;;;1.85;;
36497;SDS011;22513;51.222;6.480;2022-10-16T04:02:22;2.90;;;2.20;;
36497;SDS011;22513;51.222;6.480;2022-10-16T04:04:48;4.20;;;2.15;;
36497;SDS011;22513;51.222;6.480;2022-10-16T04:07:14;2.97;;;1.75;;
36497;SDS011;22513;51.222;6.480;2022-10-16T04:09:39;6.97;;;2.88;;
36497;SDS011;22513;51.222;6.480;2022-10-16T04:12:05;5.50;;;2.58;;
36497;SDS011;22513;51.222;6.480;2022-10-16T04:14:31;4.68;;;2.35;;
36497;SDS011;22513;51.222;6.480;2022-10-16T04:16:56;4.47;;;2.58;;
36497;SDS011;22513;51.222;6.480;2022-10-16T04:19:22;2.90;;;2.10;;
36497;SDS011;22513;51.222;6.480;2022-10-16T04:21:47;6.57;;;2.30;;
36497;SDS011;22513;51.222;6.480;2022-10-16T04:24:13;7.72;;;2.38;;
36497;SDS011;22513;51.222;6.480;2022-10-16T04:26:38;4.65;;;2.60;;
36497;SDS011;22513;51.222;6.480;2022-10-16T04:29:04;4.20;;;2.63;;
36497;SDS011;22513;51.222;6.480;2022-10-16T04:31:31;4.82;;;2.25;;
36497;SDS011;22513;51.222;6.480;2022-10-16T04:33:56;4.38;;;2.47;;
36497;SDS011;22513;51.222;6.480;2022-10-16T04:36:22;4.13;;;3.03;;
36497;SDS011;22513;51.222;6.480;2022-10-16T04:38:47;3.65;;;2.50;;
36497;SDS011;22513;51.222;6.480;2022-10-16T04:41:13;6.82;;;2.92;;
36497;SDS011;22513;51.222;6.480;2022-10-16T04:43:39;7.50;;;2.40;;
36497;SDS011;22513;51.222;6.480;2022-10-16T04:46:04;3.47;;;2.50;;
36497;SDS011;22513;51.222;6.480;2022-10-16T04:48:30;6.22;;;2.75;;
36497;SDS011;22513;51.222;6.480;2022-10-16T04:50:56;6.43;;;3.33;;
36497;SDS011;22513;51.222;6.480;2022-10-16T04:53:22;4.65;;;3.08;;
36497;SDS011;22513;51.222;6.480;2022-10-16T04:55:49;5.03;;;3.30;;
36497;SDS011;22513;51.222;6.480;2022-10-16T04:58:14;3.95;;;2.97;;
36497;SDS011;22513;51.222;6.480;2022-10-16T05:00:40;6.00;;;2.95;;
36497;SDS011;22513;51.222;6.480;2022-10-16T05:03:06;4.68;;;3.05;;
36497;SDS011;22513;51.222;6.480;2022-10-16T05:05:33;10.18;;;3.50;;
36497;SDS011;22513;51.222;6.480;2022-10-16T05:07:59;4.25;;;2.70;;
36497;SDS011;22513;51.222;6.480;2022-10-16T05:10:25;6.57;;;2.97;;
36497;SDS011;22513;51.222;6.480;2022-10-16T05:12:51;8.18;;;3.47;;
36497;SDS011;22513;51.222;6.480;2022-10-16T05:15:16;5.07;;;3.50;;
36497;SDS011;22513;51.222;6.480;2022-10-16T05:17:43;4.95;;;3.50;;
36497;SDS011;22513;51.222;6.480;2022-10-16T05:20:09;5.13;;;3.90;;
36497;SDS011;22513;51.222;6.480;2022-10-16T05:22:34;5.47;;;3.70;;
36497;SDS011;22513;51.222;6.480;2022-10-16T05:25:00;6.18;;;3.38;;
36497;SDS011;22513;51.222;6.480;2022-10-16T05:27:26;6.07;;;3.60;;
36497;SDS011;22513;51.222;6.480;2022-10-16T05:29:51;4.95;;;3.53;;
36497;SDS011;22513;51.222;6.480;2022-10-16T05:32:17;4.85;;;3.50;;
36497;SDS011;22513;51.222;6.480;2022-10-16T05:34:43;5.15;;;3.78;;
36497;SDS011;22513;51.222;6.480;2022-10-16T05:37:09;7.05;;;4.25;;
36497;SDS011;22513;51.222;6.480;2022-10-16T05:39:36;10.80;;;4.05;;
36497;SDS011;22513;51.222;6.480;2022-10-16T05:42:02;5.47;;;3.65;;
36497;SDS011;22513;51.222;6.480;2022-10-16T05:44:28;5.60;;;3.90;;
36497;SDS011;22513;51.222;6.480;2022-10-16T05:46:54;6.75;;;3.58;;
36497;SDS011;22513;51.222;6.480;2022-10-16T05:49:20;6.25;;;4.30;;
36497;SDS011;22513;51.222;6.480;2022-10-16T05:51:45;4.95;;;3.58;;
36497;SDS011;22513;51.222;6.480;2022-10-16T05:54:11;12.27;;;4.40;;
36497;SDS011;22513;51.222;6.480;2022-10-16T05:56:36;5.53;;;4.10;;
36497;SDS011;22513;51.222;6.480;2022-10-16T05:59:05;5.40;;;4.10;;
36497;SDS011;22513;51.222;6.480;2022-10-16T06:01:31;6.50;;;4.60;;
36497;SDS011;22513;51.222;6.480;2022-10-16T06:03:57;10.13;;;4.95;;
36497;SDS011;22513;51.222;6.480;2022-10-16T06:06:24;8.85;;;5.35;;
36497;SDS011;22513;51.222;6.480;2022-10-16T06:08:52;6.63;;;4.53;;
36497;SDS011;22513;51.222;6.480;2022-10-16T06:11:19;8.50;;;4.93;;
36497;SDS011;22513;51.222;6.480;2022-10-16T06:13:50;7.03;;;4.57;;
36497;SDS011;22513;51.222;6.480;2022-10-16T06:16:27;8.30;;;5.30;;
36497;SDS011;22513;51.222;6.480;2022-10-16T06:18:54;7.38;;;4.80;;
36497;SDS011;22513;51.222;6.480;2022-10-16T06:21:25;7.40;;;4.90;;
36497;SDS011;22513;51.222;6.480;2022-10-16T06:23:52;9.82;;;5.32;;
36497;SDS011;22513;51.222;6.480;2022-10-16T06:26:20;8.75;;;5.03;;
36497;SDS011;22513;51.222;6.480;2022-10-16T06:28:47;7.80;;;5.30;;
36497;SDS011;22513;51.222;6.480;2022-10-16T06:31:13;7.45;;;5.70;;
36497;SDS011;22513;51.222;6.480;2022-10-16T06:33:39;8.18;;;5.93;;
36497;SDS011;22513;51.222;6.480;2022-10-16T06:38:33;9.27;;;5.93;;
36497;SDS011;22513;51.222;6.480;2022-10-16T06:40:59;7.82;;;5.00;;
36497;SDS011;22513;51.222;6.480;2022-10-16T06:43:24;7.57;;;4.93;;
36497;SDS011;22513;51.222;6.480;2022-10-16T06:45:54;6.93;;;5.38;;
36497;SDS011;22513;51.222;6.480;2022-10-16T06:48:21;7.85;;;6.28;;
36497;SDS011;22513;51.222;6.480;2022-10-16T06:50:58;9.85;;;4.80;;
36497;SDS011;22513;51.222;6.480;2022-10-16T06:53:24;7.93;;;5.32;;
36497;SDS011;22513;51.222;6.480;2022-10-16T06:55:51;7.60;;;4.65;;
36497;SDS011;22513;51.222;6.480;2022-10-16T06:58:16;9.30;;;4.22;;
36497;SDS011;22513;51.222;6.480;2022-10-16T07:00:42;5.40;;;4.75;;
36497;SDS011;22513;51.222;6.480;2022-10-16T07:03:07;5.05;;;4.03;;
36497;SDS011;22513;51.222;6.480;2022-10-16T07:05:37;6.03;;;4.72;;
36497;SDS011;22513;51.222;6.480;2022-10-16T07:08:03;5.25;;;4.50;;
36497;SDS011;22513;51.222;6.480;2022-10-16T07:10:30;5.68;;;4.28;;
36497;SDS011;22513;51.222;6.480;2022-10-16T07:12:56;5.25;;;4.15;;
36497;SDS011;22513;51.222;6.480;2022-10-16T07:15:21;6.43;;;3.92;;
36497;SDS011;22513;51.222;6.480;2022-10-16T07:17:47;9.10;;;4.68;;
36497;SDS011;22513;51.222;6.480;2022-10-16T07:20:13;5.57;;;4.75;;
36497;SDS011;22513;51.222;6.480;2022-10-16T07:22:39;7.40;;;4.40;;
36497;SDS011;22513;51.222;6.480;2022-10-16T07:25:04;4.63;;;3.90;;
36497;SDS011;22513;51.222;6.480;2022-10-16T07:27:30;5.97;;;4.47;;
36497;SDS011;22513;51.222;6.480;2022-10-16T07:29:56;3.42;;;3.10;;
36497;SDS011;22513;51.222;6.480;2022-10-16T07:32:21;4.97;;;3.45;;
36497;SDS011;22513;51.222;6.480;2022-10-16T07:34:47;3.90;;;2.03;;
36497;SDS011;22513;51.222;6.480;2022-10-16T07:37:13;4.13;;;1.98;;
36497;SDS011;22513;51.222;6.480;2022-10-16T07:39:38;2.67;;;1.90;;
36497;SDS011;22513;51.222;6.480;2022-10-16T07:42:04;5.95;;;2.42;;
36497;SDS011;22513;51.222;6.480;2022-10-16T07:44:29;3.70;;;2.10;;
36497;SDS011;22513;51.222;6.480;2022-10-16T07:46:55;6.60;;;2.50;;
36497;SDS011;22513;51.222;6.480;2022-10-16T07:49:21;3.75;;;2.13;;
36497;SDS011;22513;51.222;6.480;2022-10-16T07:51:46;3.80;;;2.38;;
36497;SDS011;22513;51.222;6.480;2022-10-16T07:54:12;3.70;;;2.35;;
36497;SDS011;22513;51.222;6.480;2022-10-16T07:56:37;4.65;;;2.22;;
36497;SDS011;22513;51.222;6.480;2022-10-16T07:59:03;3.35;;;2.70;;
36497;SDS011;22513;51.222;6.480;2022-10-16T08:01:28;5.55;;;2.38;;
36497;SDS011;22513;51.222;6.480;2022-10-16T08:03:54;2.70;;;2.10;;
36497;SDS011;22513;51.222;6.480;2022-10-16T08:06:20;3.92;;;2.40;;
36497;SDS011;22513;51.222;6.480;2022-10-16T08:08:46;3.17;;;2.35;;
36497;SDS011;22513;51.222;6.480;2022-10-16T08:11:12;4.43;;;2.20;;
36497;SDS011;22513;51.222;6.480;2022-10-16T08:13:39;5.57;;;2.60;;
36497;SDS011;22513;51.222;6.480;2022-10-16T08:16:06;4.85;;;2.10;;
36497;SDS011;22513;51.222;6.480;2022-10-16T08:18:33;4.07;;;2.03;;
36497;SDS011;22513;51.222;6.480;2022-10-16T08:21:00;4.32;;;2.03;;
36497;SDS011;22513;51.222;6.480;2022-10-16T08:23:26;4.78;;;1.80;;
36497;SDS011;22513;51.222;6.480;2022-10-16T08:25:53;5.07;;;2.03;;
36497;SDS011;22513;51.222;6.480;2022-10-16T08:28:19;5.22;;;2.03;;
36497;SDS011;22513;51.222;6.480;2022-10-16T08:30:45;3.13;;;1.42;;
36497;SDS011;22513;51.222;6.480;2022-10-16T08:33:11;4.25;;;1.60;;
36497;SDS011;22513;51.222;6.480;2022-10-16T08:35:36;1.90;;;1.50;;
36497;SDS011;22513;51.222;6.480;2022-10-16T08:38:03;2.83;;;1.33;;
36497;SDS011;22513;51.222;6.480;2022-10-16T08:40:29;2.65;;;1.65;;
36497;SDS011;22513;51.222;6.480;2022-10-16T08:45:43;2.33;;;1.10;;
36497;SDS011;22513;51.222;6.480;2022-10-16T08:48:21;1.90;;;1.20;;
36497;SDS011;22513;51.222;6.480;2022-10-16T08:51:11;2.53;;;1.60;;
36497;SDS011;22513;51.222;6.480;2022-10-16T08:53:44;4.82;;;1.45;;
36497;SDS011;22513;51.222;6.480;2022-10-16T08:56:14;1.77;;;1.30;;
36497;SDS011;22513;51.222;6.480;2022-10-16T08:58:40;3.38;;;1.52;;
36497;SDS011;22513;51.222;6.480;2022-10-16T09:01:10;1.80;;;1.30;;
36497;SDS011;22513;51.222;6.480;2022-10-16T09:23:07;1.92;;;0.93;;
36497;SDS011;22513;51.222;6.480;2022-10-16T09:25:45;4.40;;;0.80;;
36497;SDS011;22513;51.222;6.480;2022-10-16T09:28:13;5.55;;;1.20;;
36497;SDS011;22513;51.222;6.480;2022-10-16T09:30:39;2.90;;;1.27;;
36497;SDS011;22513;51.222;6.480;2022-10-16T09:33:05;2.13;;;1.10;;
36497;SDS011;22513;51.222;6.480;2022-10-16T09:35:43;1.48;;;0.90;;
36497;SDS011;22513;51.222;6.480;2022-10-16T09:38:21;3.65;;;1.10;;
36497;SDS011;22513;51.222;6.480;2022-10-16T09:40:58;4.60;;;1.42;;
36497;SDS011;22513;51.222;6.480;2022-10-16T09:46:05;4.32;;;1.10;;
36497;SDS011;22513;51.222;6.480;2022-10-16T09:48:34;2.45;;;0.88;;
36497;SDS011;22513;51.222;6.480;2022-10-16T09:51:02;6.13;;;0.90;;
36497;SDS011;22513;51.222;6.480;2022-10-16T09:53:45;2.63;;;0.73;;
36497;SDS011;22513;51.222;6.480;2022-10-16T09:56:20;5.88;;;1.77;;
36497;SDS011;22513;51.222;6.480;2022-10-16T09:58:51;1.67;;;0.93;;
36497;SDS011;22513;51.222;6.480;2022-10-16T10:01:18;4.80;;;1.20;;
36497;SDS011;22513;51.222;6.480;2022-10-16T10:03:45;2.38;;;0.93;;
36497;SDS011;22513;51.222;6.480;2022-10-16T10:09:05;2.30;;;0.85;;
36497;SDS011;22513;51.222;6.480;2022-10-16T10:11:41;6.43;;;1.10;;
36497;SDS011;22513;51.222;6.480;2022-10-16T10:14:15;1.95;;;1.50;;
36497;SDS011;22513;51.222;6.480;2022-10-16T10:16:41;5.25;;;2.10;;
36497;SDS011;22513;51.222;6.480;2022-10-16T10:19:17;5.28;;;1.40;;
36497;SDS011;22513;51.222;6.480;2022-10-16T10:21:45;1.83;;;0.88;;
36497;SDS011;22513;51.222;6.480;2022-10-16T10:24:13;3.63;;;1.10;;
36497;SDS011;22513;51.222;6.480;2022-10-16T10:26:41;1.43;;;0.97;;
36497;SDS011;22513;51.222;6.480;2022-10-16T10:32:00;6.07;;;1.30;;
36497;SDS011;22513;51.222;6.480;2022-10-16T10:39:59;1.90;;;0.90;;
36497;SDS011;22513;51.222;6.480;2022-10-16T11:01:11;2.58;;;1.00;;
36497;SDS011;22513;51.222;6.480;2022-10-16T11:09:23;1.23;;;0.68;;
36497;SDS011;22513;51.222;6.480;2022-10-16T11:11:51;3.83;;;1.08;;
36497;SDS011;22513;51.222;6.480;2022-10-16T11:14:33;4.40;;;1.20;;
36497;SDS011;22513;51.222;6.480;2022-10-16T11:17:07;3.28;;;0.90;;
36497;SDS011;22513;51.222;6.480;2022-10-16T11:22:13;3.53;;;0.90;;
36497;SDS011;22513;51.222;6.480;2022-10-16T11:24:51;3.03;;;1.00;;
36497;SDS011;22513;51.222;6.480;2022-10-16T11:27:33;2.47;;;0.65;;
36497;SDS011;22513;51.222;6.480;2022-10-16T11:30:12;4.97;;;0.90;;
36497;SDS011;22513;51.222;6.480;2022-10-16T11:35:44;2.17;;;0.63;;
36497;SDS011;22513;51.222;6.480;2022-10-16T11:43:37;3.10;;;1.17;;
36497;SDS011;22513;51.222;6.480;2022-10-16T11:46:10;3.83;;;1.05;;
36497;SDS011;22513;51.222;6.480;2022-10-16T11:51:45;4.03;;;0.63;;
36497;SDS011;22513;51.222;6.480;2022-10-16T11:54:27;3.22;;;0.98;;
36497;SDS011;22513;51.222;6.480;2022-10-16T11:57:02;5.38;;;2.00;;
36497;SDS011;22513;51.222;6.480;2022-10-16T12:00:22;2.42;;;0.95;;
36497;SDS011;22513;51.222;6.480;2022-10-16T12:08:09;2.00;;;0.93;;
36497;SDS011;22513;51.222;6.480;2022-10-16T12:10:40;3.28;;;0.93;;
36497;SDS011;22513;51.222;6.480;2022-10-16T12:16:06;3.35;;;0.85;;
36497;SDS011;22513;51.222;6.480;2022-10-16T12:18:32;2.65;;;0.88;;
36497;SDS011;22513;51.222;6.480;2022-10-16T12:20:58;2.67;;;0.80;;
36497;SDS011;22513;51.222;6.480;2022-10-16T12:23:29;7.07;;;0.93;;
36497;SDS011;22513;51.222;6.480;2022-10-16T12:25:57;2.15;;;0.90;;
36497;SDS011;22513;51.222;6.480;2022-10-16T12:28:31;5.45;;;0.70;;
36497;SDS011;22513;51.222;6.480;2022-10-16T12:31:02;6.05;;;0.98;;
36497;SDS011;22513;51.222;6.480;2022-10-16T12:33:33;3.55;;;0.80;;
36497;SDS011;22513;51.222;6.480;2022-10-16T12:36:10;2.33;;;0.77;;
36497;SDS011;22513;51.222;6.480;2022-10-16T12:38:47;1.38;;;0.63;;
36497;SDS011;22513;51.222;6.480;2022-10-16T12:41:23;2.67;;;0.80;;
36497;SDS011;22513;51.222;6.480;2022-10-16T12:43:59;2.58;;;0.70;;
36497;SDS011;22513;51.222;6.480;2022-10-16T12:51:39;1.83;;;0.80;;
36497;SDS011;22513;51.222;6.480;2022-10-16T12:54:15;1.25;;;0.60;;
36497;SDS011;22513;51.222;6.480;2022-10-16T13:05:20;1.83;;;0.65;;
36497;SDS011;22513;51.222;6.480;2022-10-16T13:10:51;3.15;;;0.70;;
36497;SDS011;22513;51.222;6.480;2022-10-16T13:19:13;2.88;;;0.88;;
36497;SDS011;22513;51.222;6.480;2022-10-16T13:30:17;2.63;;;0.77;;
36497;SDS011;22513;51.222;6.480;2022-10-16T13:32:46;2.60;;;0.80;;
36497;SDS011;22513;51.222;6.480;2022-10-16T13:35:21;1.40;;;0.80;;
36497;SDS011;22513;51.222;6.480;2022-10-16T13:38:02;3.08;;;1.25;;
36497;SDS011;22513;51.222;6.480;2022-10-16T13:40:29;2.28;;;0.90;;
36497;SDS011;22513;51.222;6.480;2022-10-16T13:42:54;1.27;;;0.73;;
36497;SDS011;22513;51.222;6.480;2022-10-16T13:45:22;3.00;;;0.65;;
36497;SDS011;22513;51.222;6.480;2022-10-16T13:48:00;3.38;;;0.90;;
36497;SDS011;22513;51.222;6.480;2022-10-16T13:50:30;1.63;;;0.60;;
36497;SDS011;22513;51.222;6.480;2022-10-16T13:53:12;2.75;;;0.80;;
36497;SDS011;22513;51.222;6.480;2022-10-16T13:55:39;1.77;;;0.90;;
36497;SDS011;22513;51.222;6.480;2022-10-16T13:58:07;2.25;;;0.73;;
36497;SDS011;22513;51.222;6.480;2022-10-16T14:00:36;1.23;;;0.80;;
36497;SDS011;22513;51.222;6.480;2022-10-16T14:03:07;3.10;;;0.90;;
36497;SDS011;22513;51.222;6.480;2022-10-16T14:05:44;3.97;;;0.95;;
36497;SDS011;22513;51.222;6.480;2022-10-16T14:08:12;1.90;;;1.00;;
36497;SDS011;22513;51.222;6.480;2022-10-16T14:10:38;5.95;;;0.80;;
36497;SDS011;22513;51.222;6.480;2022-10-16T14:13:05;0.73;;;0.50;;
36497;SDS011;22513;51.222;6.480;2022-10-16T14:15:32;1.05;;;0.70;;
36497;SDS011;22513;51.222;6.480;2022-10-16T14:18:00;2.70;;;0.90;;
36497;SDS011;22513;51.222;6.480;2022-10-16T14:20:29;2.28;;;0.75;;
36497;SDS011;22513;51.222;6.480;2022-10-16T14:23:00;2.67;;;1.02;;
36497;SDS011;22513;51.222;6.480;2022-10-16T14:25:29;3.75;;;0.80;;
36497;SDS011;22513;51.222;6.480;2022-10-16T14:30:23;1.38;;;0.82;;
36497;SDS011;22513;51.222;6.480;2022-10-16T14:35:27;4.45;;;0.70;;
36497;SDS011;22513;51.222;6.480;2022-10-16T14:38:01;2.35;;;0.70;;
36497;SDS011;22513;51.222;6.480;2022-10-16T14:40:29;1.67;;;0.68;;
36497;SDS011;22513;51.222;6.480;2022-10-16T14:43:00;2.10;;;0.88;;
36497;SDS011;22513;51.222;6.480;2022-10-16T14:45:28;1.73;;;0.73;;
36497;SDS011;22513;51.222;6.480;2022-10-16T14:48:03;2.90;;;0.90;;
36497;SDS011;22513;51.222;6.480;2022-10-16T14:50:39;4.32;;;1.60;;
36497;SDS011;22513;51.222;6.480;2022-10-16T14:53:10;2.80;;;0.77;;
36497;SDS011;22513;51.222;6.480;2022-10-16T14:55:37;2.45;;;0.80;;
36497;SDS011;22513;51.222;6.480;2022-10-16T14:58:03;2.13;;;0.95;;
36497;SDS011;22513;51.222;6.480;2022-10-16T15:00:29;3.47;;;1.50;;
36497;SDS011;22513;51.222;6.480;2022-10-16T15:02:55;4.00;;;1.27;;
36497;SDS011;22513;51.222;6.480;2022-10-16T15:07:49;2.55;;;0.90;;
36497;SDS011;22513;51.222;6.480;2022-10-16T15:10:16;3.72;;;1.02;;
36497;SDS011;22513;51.222;6.480;2022-10-16T15:12:42;2.88;;;1.20;;
36497;SDS011;22513;51.222;6.480;2022-10-16T15:17:55;4.32;;;0.90;;
36497;SDS011;22513;51.222;6.480;2022-10-16T15:22:48;3.75;;;1.85;;
36497;SDS011;22513;51.222;6.480;2022-10-16T15:27:45;1.75;;;0.90;;
36497;SDS011;22513;51.222;6.480;2022-10-16T15:30:11;1.98;;;0.98;;
36497;SDS011;22513;51.222;6.480;2022-10-16T15:32:37;4.45;;;0.90;;
36497;SDS011;22513;51.222;6.480;2022-10-16T15:35:02;3.65;;;1.00;;
36497;SDS011;22513;51.222;6.480;2022-10-16T15:37:28;1.48;;;0.82;;
36497;SDS011;22513;51.222;6.480;2022-10-16T15:39:54;3.35;;;1.40;;
36497;SDS011;22513;51.222;6.480;2022-10-16T15:42:19;2.45;;;0.85;;
36497;SDS011;22513;51.222;6.480;2022-10-16T15:44:45;3.65;;;1.05;;
36497;SDS011;22513;51.222;6.480;2022-10-16T15:47:10;2.08;;;0.70;;
36497;SDS011;22513;51.222;6.480;2022-10-16T15:49:36;1.27;;;0.82;;
36497;SDS011;22513;51.222;6.480;2022-10-16T15:52:02;5.47;;;1.67;;
36497;SDS011;22513;51.222;6.480;2022-10-16T15:54:28;2.30;;;0.90;;
36497;SDS011;22513;51.222;6.480;2022-10-16T15:56:54;1.63;;;0.80;;
36497;SDS011;22513;51.222;6.480;2022-10-16T15:59:19;2.00;;;0.88;;
36497;SDS011;22513;51.222;6.480;2022-10-16T16:01:45;3.63;;;1.10;;
36497;SDS011;22513;51.222;6.480;2022-10-16T16:04:10;2.90;;;0.90;;
36497;SDS011;22513;51.222;6.480;2022-10-16T16:06:37;3.28;;;0.82;;
36497;SDS011;22513;51.222;6.480;2022-10-16T16:09:04;3.88;;;0.90;;
36497;SDS011;22513;51.222;6.480;2022-10-16T16:11:29;4.75;;;1.20;;
36497;SDS011;22513;51.222;6.480;2022-10-16T16:13:57;3.35;;;1.00;;
36497;SDS011;22513;51.222;6.480;2022-10-16T16:16:22;1.10;;;0.70;;
36497;SDS011;22513;51.222;6.480;2022-10-16T16:18:48;2.72;;;1.00;;
36497;SDS011;22513;51.222;6.480;2022-10-16T16:21:17;2.08;;;1.20;;
36497;SDS011;22513;51.222;6.480;2022-10-16T16:23:43;2.15;;;1.02;;
36497;SDS011;22513;51.222;6.480;2022-10-16T16:26:10;1.38;;;1.27;;
36497;SDS011;22513;51.222;6.480;2022-10-16T16:28:48;2.97;;;1.30;;
36497;SDS011;22513;51.222;6.480;2022-10-16T16:31:14;1.45;;;0.98;;
36497;SDS011;22513;51.222;6.480;2022-10-16T16:33:40;3.13;;;1.27;;
36497;SDS011;22513;51.222;6.480;2022-10-16T16:36:05;8.50;;;1.58;;
36497;SDS011;22513;51.222;6.480;2022-10-16T16:38:32;3.35;;;1.55;;
36497;SDS011;22513;51.222;6.480;2022-10-16T16:40:58;5.57;;;1.30;;
36497;SDS011;22513;51.222;6.480;2022-10-16T16:43:25;1.60;;;1.40;;
36497;SDS011;22513;51.222;6.480;2022-10-16T16:45:51;2.42;;;1.63;;
36497;SDS011;22513;51.222;6.480;2022-10-16T16:48:17;2.50;;;1.55;;
36497;SDS011;22513;51.222;6.480;2022-10-16T16:50:43;3.80;;;1.80;;
36497;SDS011;22513;51.222;6.480;2022-10-16T16:53:09;3.63;;;1.40;;
36497;SDS011;22513;51.222;6.480;2022-10-16T16:55:34;1.52;;;1.40;;
36497;SDS011;22513;51.222;6.480;2022-10-16T16:58:00;4.95;;;1.90;;
36497;SDS011;22513;51.222;6.480;2022-10-16T17:00:26;1.95;;;1.33;;
36497;SDS011;22513;51.222;6.480;2022-10-16T17:02:51;4.03;;;1.38;;
36497;SDS011;22513;51.222;6.480;2022-10-16T17:05:17;3.58;;;2.00;;
36497;SDS011;22513;51.222;6.480;2022-10-16T17:07:43;5.10;;;2.28;;
36497;SDS011;22513;51.222;6.480;2022-10-16T17:10:09;4.28;;;1.75;;
36497;SDS011;22513;51.222;6.480;2022-10-16T17:12:35;4.32;;;1.90;;
36497;SDS011;22513;51.222;6.480;2022-10-16T17:15:00;5.25;;;2.40;;
36497;SDS011;22513;51.222;6.480;2022-10-16T17:17:26;5.63;;;2.17;;
36497;SDS011;22513;51.222;6.480;2022-10-16T17:19:52;3.78;;;1.98;;
36497;SDS011;22513;51.222;6.480;2022-10-16T17:22:18;3.78;;;1.73;;
36497;SDS011;22513;51.222;6.480;2022-10-16T17:24:44;6.32;;;1.85;;
36497;SDS011;22513;51.222;6.480;2022-10-16T17:27:14;5.60;;;2.22;;
36497;SDS011;22513;51.222;6.480;2022-10-16T17:29:40;4.50;;;1.77;;